Time;durP1;ratioP1;P1;durP2;ratioP2;P2;SDS_P1;SDS_P2;PMS_P1;PMS_P2;Temp;Humidity;BMP_temperature;BMP_pressure;BME280_temperature;BME280_humidity;BME280_pressure;Samples;Min_cycle;Max_cycle;Signal;HPM_P1;HPM_P2
2021/12/29 00:00:43;;;;;;;84.30;20.70;;;;;;;7.76;95.59;99169.72;5091596;28;20479;-39
2021/12/29 00:03:09;;;;;;;61.70;18.85;;;;;;;7.70;95.12;99160.72;5091333;28;20072;-39
2021/12/29 00:05:34;;;;;;;70.97;20.15;;;;;;;7.85;94.63;99160.59;5091544;28;20066;-39
2021/12/29 00:08:00;;;;;;;87.65;19.58;;;;;;;7.78;95.99;99159.75;5091133;28;20044;-39
2021/12/29 00:10:26;;;;;;;87.07;22.70;;;;;;;8.47;93.90;99163.13;5091681;28;20421;-37
2021/12/29 00:12:53;;;;;;;63.67;17.45;;;;;;;7.99;93.26;99167.53;5091596;28;20020;-39
2021/12/29 00:15:19;;;;;;;64.63;18.50;;;;;;;7.89;93.84;99171.59;5091680;28;20016;-39
2021/12/29 00:17:45;;;;;;;64.10;18.70;;;;;;;7.80;94.07;99174.41;5088676;28;20024;-39
2021/12/29 00:20:13;;;;;;;73.93;19.05;;;;;;;7.85;94.06;99175.66;5091423;28;20457;-39
2021/12/29 00:22:38;;;;;;;81.45;18.05;;;;;;;7.79;94.48;99175.44;5091177;28;20400;-39
2021/12/29 00:25:04;;;;;;;63.53;18.50;;;;;;;8.00;93.18;99169.19;5091201;28;20448;-39
2021/12/29 00:27:30;;;;;;;86.75;19.42;;;;;;;7.71;93.98;99130.59;5091317;28;20016;-39
2021/12/29 00:29:55;;;;;;;97.35;20.70;;;;;;;8.60;91.93;99152.53;5091242;28;20479;-39
2021/12/29 00:32:21;;;;;;;55.13;18.73;;;;;;;8.11;92.40;99154.53;5090915;28;20016;-39
2021/12/29 00:34:46;;;;;;;64.95;17.95;;;;;;;7.99;93.18;99156.94;5091236;28;20027;-40
2021/12/29 00:37:11;;;;;;;50.88;15.60;;;;;;;7.81;92.43;99162.00;5091649;28;20028;-39
2021/12/29 00:39:37;;;;;;;37.92;14.18;;;;;;;7.63;93.43;99150.13;5091322;28;20024;-39
2021/12/29 00:42:03;;;;;;;45.45;15.13;;;;;;;7.48;95.20;99156.56;5091005;28;20054;-39
2021/12/29 00:44:30;;;;;;;37.20;14.48;;;;;;;7.59;93.91;99145.41;5091453;28;20103;-39
2021/12/29 00:46:56;;;;;;;41.65;15.75;;;;;;;8.01;93.54;99154.94;5090767;28;20028;-39
2021/12/29 00:49:22;;;;;;;46.13;14.43;;;;;;;7.86;92.36;99153.44;5091287;28;20101;-40
2021/12/29 00:51:48;;;;;;;47.33;14.75;;;;;;;7.80;92.93;99153.22;5091317;28;20048;-39
2021/12/29 00:54:14;;;;;;;42.28;15.40;;;;;;;7.48;93.34;99122.97;5091213;28;20077;-39
2021/12/29 00:56:39;;;;;;;51.58;15.95;;;;;;;7.83;92.94;99160.78;5091002;28;20024;-38
2021/12/29 00:59:04;;;;;;;41.75;13.88;;;;;;;7.60;92.82;99158.47;5090882;28;20020;-39
2021/12/29 01:01:30;;;;;;;40.47;15.00;;;;;;;7.57;94.06;99158.84;5091357;28;20317;-39
2021/12/29 01:03:56;;;;;;;54.28;15.32;;;;;;;7.71;92.85;99167.69;5090853;28;20456;-39
2021/12/29 01:06:21;;;;;;;54.50;17.38;;;;;;;8.09;93.42;99168.97;5090423;28;20085;-39
2021/12/29 01:08:47;;;;;;;57.97;18.00;;;;;;;8.24;92.08;99169.63;5090692;28;20020;-39
2021/12/29 01:11:12;;;;;;;55.22;17.05;;;;;;;8.03;92.08;99178.53;5091029;28;20036;-38
2021/12/29 01:13:45;;;;;;;54.83;15.50;;;;;;;7.73;92.20;99163.00;5091061;28;20024;-39
2021/12/29 01:18:54;;;;;;;48.78;17.23;;;;;;;7.93;92.54;99163.03;5090056;28;20549;-38
2021/12/29 01:21:20;;;;;;;58.78;19.38;;;;;;;7.76;92.74;99167.88;5090527;28;20456;-39
2021/12/29 01:23:45;;;;;;;47.00;17.17;;;;;;;7.57;93.07;99145.59;5090460;28;20028;-39
2021/12/29 01:26:11;;;;;;;47.28;16.60;;;;;;;7.59;94.35;99154.16;5090884;28;20023;-39
2021/12/29 01:28:36;;;;;;;49.85;17.17;;;;;;;8.17;91.63;99156.38;5090265;28;20024;-39
2021/12/29 01:31:02;;;;;;;38.72;13.90;;;;;;;7.61;91.50;99148.69;5090058;28;20020;-39
2021/12/29 01:33:27;;;;;;;38.28;13.65;;;;;;;7.76;92.03;99153.81;5090241;28;20034;-39
2021/12/29 01:35:53;;;;;;;38.85;14.23;;;;;;;7.59;92.55;99150.72;5090498;28;20020;-39
2021/12/29 01:38:18;;;;;;;53.47;14.25;;;;;;;7.32;92.57;99124.13;5090179;28;20027;-39
2021/12/29 01:40:48;;;;;;;35.80;13.30;;;;;;;7.32;92.99;99155.91;5090454;28;20028;-39
2021/12/29 01:43:14;;;;;;;48.63;15.15;;;;;;;7.53;93.83;99154.16;5090292;28;20375;-39
2021/12/29 01:45:39;;;;;;;45.97;15.50;;;;;;;7.27;94.68;99139.78;5090103;28;20016;-39
2021/12/29 01:48:05;;;;;;;38.90;14.82;;;;;;;7.24;94.94;99146.28;5090145;28;20020;-39
2021/12/29 01:50:31;;;;;;;40.53;14.30;;;;;;;7.45;94.41;99152.50;5090298;28;20043;-39
2021/12/29 01:53:02;;;;;;;51.25;15.85;;;;;;;7.53;94.26;99149.66;5090261;28;20042;-39
2021/12/29 01:55:30;;;;;;;53.42;15.68;;;;;;;8.29;90.87;99145.16;5089866;28;20024;-39
2021/12/29 01:57:56;;;;;;;41.80;14.25;;;;;;;7.63;91.78;99147.50;5090436;28;20552;-39
2021/12/29 02:00:24;;;;;;;41.08;14.13;;;;;;;7.44;92.63;99145.56;5090378;28;20057;-38
2021/12/29 02:02:49;;;;;;;38.40;13.10;;;;;;;7.37;93.10;99140.25;5090097;28;20511;-39
2021/12/29 02:05:16;;;;;;;42.53;13.60;;;;;;;7.44;93.22;99140.25;5090187;28;20098;-39
2021/12/29 02:07:42;;;;;;;49.03;13.52;;;;;;;7.88;92.35;99135.50;5090033;28;20044;-38
2021/12/29 02:10:07;;;;;;;34.35;12.93;;;;;;;7.86;91.50;99134.91;5089905;28;20061;-38
2021/12/29 02:12:33;;;;;;;36.03;13.43;;;;;;;7.74;90.84;99127.53;5090175;28;20105;-39
2021/12/29 02:14:58;;;;;;;33.40;11.63;;;;;;;7.41;91.78;99120.31;5090079;28;20474;-38
2021/12/29 02:17:24;;;;;;;31.73;11.88;;;;;;;7.54;91.69;99122.19;5089695;28;20389;-39
2021/12/29 02:19:51;;;;;;;29.70;11.48;;;;;;;7.47;92.69;99131.94;5089954;28;20024;-39
2021/12/29 02:22:41;;;;;;;25.95;11.15;;;;;;;7.62;91.55;99131.78;5090279;28;20524;-39
2021/12/29 02:25:20;;;;;;;28.65;10.63;;;;;;;7.53;91.86;99140.91;5089603;28;20391;-39
2021/12/29 02:27:50;;;;;;;33.33;11.87;;;;;;;7.80;91.38;99134.69;5089958;28;20039;-39
2021/12/29 02:30:17;;;;;;;28.45;10.52;;;;;;;7.78;90.94;99138.56;5089904;28;20020;-40
2021/12/29 02:32:43;;;;;;;29.95;10.27;;;;;;;7.40;92.88;99120.50;5089863;28;20016;-40
2021/12/29 02:35:09;;;;;;;23.83;9.30;;;;;;;7.10;91.87;99128.72;5089514;28;20020;-39
2021/12/29 02:37:35;;;;;;;22.30;8.88;;;;;;;6.98;92.51;99128.44;5089728;28;20020;-39
2021/12/29 02:40:00;;;;;;;26.30;9.80;;;;;;;7.21;92.81;99124.69;5089540;28;20024;-39
2021/12/29 02:42:29;;;;;;;23.63;9.43;;;;;;;7.17;91.96;99126.91;5089904;28;20020;-38
2021/12/29 02:44:54;;;;;;;22.30;9.23;;;;;;;7.16;92.73;99125.28;5093671;28;20016;-38
2021/12/29 02:47:20;;;;;;;21.92;9.20;;;;;;;7.18;92.55;99119.81;5093585;28;20541;-39
2021/12/29 02:49:45;;;;;;;27.08;10.13;;;;;;;7.51;91.69;99121.78;5093682;28;20031;-39
2021/12/29 02:52:13;;;;;;;22.75;9.93;;;;;;;7.42;92.90;99124.59;5093593;28;20020;-39
2021/12/29 02:54:38;;;;;;;22.80;10.10;;;;;;;7.80;91.00;99126.72;5093442;28;20020;-39
2021/12/29 02:57:04;;;;;;;19.90;9.57;;;;;;;7.63;90.58;99122.81;5093335;28;20082;-39
2021/12/29 02:59:29;;;;;;;22.33;9.43;;;;;;;7.43;91.21;99117.47;5093199;28;20390;-39
2021/12/29 03:01:55;;;;;;;18.35;10.00;;;;;;;7.65;90.44;99112.84;5093614;28;20027;-39
2021/12/29 03:04:20;;;;;;;23.92;10.65;;;;;;;7.47;90.49;99116.06;5091749;28;20318;-39
2021/12/29 03:06:46;;;;;;;23.42;10.68;;;;;;;7.33;92.51;99125.78;5093243;28;20044;-39
2021/12/29 03:09:12;;;;;;;23.02;10.50;;;;;;;7.67;90.81;99132.00;5093013;28;20496;-39
2021/12/29 03:11:40;;;;;;;21.42;10.57;;;;;;;7.29;91.20;99126.34;5093402;28;20081;-39
2021/12/29 03:14:05;;;;;;;20.00;10.32;;;;;;;7.04;92.37;99122.41;5093089;28;20024;-40
2021/12/29 03:16:33;;;;;;;18.67;9.45;;;;;;;6.98;93.62;99123.16;5093035;28;20359;-40
2021/12/29 03:18:58;;;;;;;15.13;9.10;;;;;;;6.95;93.12;99123.56;5093107;28;20503;-38
2021/12/29 03:21:24;;;;;;;17.88;9.05;;;;;;;6.91;93.34;99127.63;5092928;28;20121;-39
2021/12/29 03:23:49;;;;;;;16.73;9.15;;;;;;;6.99;93.04;99124.00;5092656;28;20024;-39
2021/12/29 03:26:16;;;;;;;15.45;9.00;;;;;;;6.96;93.59;99127.00;5092933;28;20016;-39
2021/12/29 03:28:43;;;;;;;16.17;8.30;;;;;;;6.80;93.47;99126.31;5092745;28;20476;-39
2021/12/29 03:31:11;;;;;;;20.10;10.20;;;;;;;7.44;92.33;99111.97;5092687;28;20032;-40
2021/12/29 03:33:36;;;;;;;17.55;9.23;;;;;;;7.83;89.64;99121.03;5092808;28;20114;-40
2021/12/29 03:36:03;;;;;;;15.80;9.43;;;;;;;7.34;90.94;99116.00;5092655;28;20089;-39
2021/12/29 03:38:31;;;;;;;16.38;8.50;;;;;;;7.11;91.41;99127.72;5092497;28;20140;-39
2021/12/29 03:40:57;;;;;;;15.38;7.90;;;;;;;7.11;91.83;99124.25;5092472;28;20051;-39
2021/12/29 03:43:22;;;;;;;14.43;7.13;;;;;;;6.87;92.50;99121.06;5091473;28;20023;-39
2021/12/29 03:45:50;;;;;;;12.63;7.10;;;;;;;6.77;93.06;99133.81;5092404;28;20393;-39
2021/12/29 03:48:15;;;;;;;13.27;6.93;;;;;;;6.77;94.27;99113.47;5092239;28;20039;-39
2021/12/29 03:50:41;;;;;;;10.45;6.30;;;;;;;6.71;93.79;99116.09;5092744;28;20020;-39
2021/12/29 03:53:07;;;;;;;13.70;6.93;;;;;;;6.91;94.55;99106.44;5092367;28;20527;-39
2021/12/29 03:55:32;;;;;;;12.73;7.35;;;;;;;6.91;94.50;99109.09;5091419;28;20024;-39
2021/12/29 03:57:58;;;;;;;13.73;6.88;;;;;;;6.98;91.90;99107.28;5092507;28;20071;-40
2021/12/29 04:00:23;;;;;;;15.45;7.28;;;;;;;6.99;92.22;99101.00;5091103;28;20044;-40
2021/12/29 04:02:49;;;;;;;14.10;7.43;;;;;;;7.13;92.20;99098.41;5092305;28;20073;-39
2021/12/29 04:05:17;;;;;;;16.17;7.22;;;;;;;6.88;92.90;99103.38;5092059;28;20392;-40
2021/12/29 04:07:42;;;;;;;15.52;7.72;;;;;;;7.03;93.39;99101.41;5091944;28;20135;-39
2021/12/29 04:10:09;;;;;;;14.10;7.10;;;;;;;7.13;92.78;99101.06;5092013;28;20064;-40
2021/12/29 04:12:35;;;;;;;14.15;7.10;;;;;;;6.92;92.78;99105.41;5092083;28;20494;-39
2021/12/29 04:15:00;;;;;;;13.45;7.18;;;;;;;7.01;92.22;99103.44;5091861;28;20020;-39
2021/12/29 04:17:36;;;;;;;12.57;6.68;;;;;;;7.11;91.49;99111.81;5091878;28;20545;-39
2021/12/29 04:23:07;;;;;;;13.02;6.38;;;;;;;6.76;92.55;99108.38;5091944;28;20089;-39
2021/12/29 04:25:36;;;;;;;12.15;6.22;;;;;;;6.81;92.03;99112.06;5091732;28;20028;-41
2021/12/29 04:28:03;;;;;;;12.32;6.63;;;;;;;6.85;92.79;99105.41;5092182;28;20384;-39
2021/12/29 04:30:29;;;;;;;11.98;6.03;;;;;;;6.94;91.65;99113.97;5091897;28;20020;-39
2021/12/29 04:32:54;;;;;;;11.13;6.10;;;;;;;6.68;93.36;99109.34;5091467;28;20024;-39
2021/12/29 04:35:20;;;;;;;15.25;6.43;;;;;;;6.98;93.37;99106.47;5091352;28;20031;-39
2021/12/29 04:37:46;;;;;;;13.77;7.25;;;;;;;6.79;93.01;99114.09;5091584;28;20047;-39
2021/12/29 04:40:12;;;;;;;15.60;8.68;;;;;;;6.79;91.94;99110.63;5091324;28;20463;-39
2021/12/29 04:42:38;;;;;;;19.13;9.50;;;;;;;6.65;92.07;99105.25;5091383;28;20406;-39
2021/12/29 04:45:04;;;;;;;16.35;9.15;;;;;;;6.95;92.56;99098.91;5091454;28;20081;-39
2021/12/29 04:47:31;;;;;;;12.43;7.68;;;;;;;6.51;93.01;99092.97;5091480;28;20114;-40
2021/12/29 04:49:59;;;;;;;15.00;8.13;;;;;;;6.71;93.04;99087.81;5091489;28;20410;-39
2021/12/29 04:52:25;;;;;;;15.77;8.70;;;;;;;6.60;93.83;99080.41;5091026;28;20047;-39
2021/12/29 04:54:50;;;;;;;14.68;8.82;;;;;;;6.67;94.63;99089.22;5091047;28;20063;-39
2021/12/29 04:57:16;;;;;;;12.07;7.80;;;;;;;6.52;92.62;99080.56;5091238;28;20392;-40
2021/12/29 04:59:41;;;;;;;12.98;7.53;;;;;;;6.74;92.45;99076.84;5091078;28;20062;-40
2021/12/29 05:02:07;;;;;;;12.82;7.15;;;;;;;6.54;92.25;99081.19;5091368;28;20131;-39
2021/12/29 05:04:44;;;;;;;13.23;7.70;;;;;;;6.71;92.56;99079.06;5091037;28;20093;-39
2021/12/29 05:09:53;;;;;;;13.50;8.15;;;;;;;7.15;91.32;99083.16;5091089;28;20115;-39
2021/12/29 05:12:19;;;;;;;12.52;6.95;;;;;;;6.83;90.83;99072.19;5090819;28;20024;-39
2021/12/29 05:14:44;;;;;;;13.35;7.25;;;;;;;6.49;92.10;99068.53;5090887;28;20024;-39
2021/12/29 05:17:10;;;;;;;11.30;6.60;;;;;;;6.46;92.15;99076.88;5090706;28;20024;-40
2021/12/29 05:19:35;;;;;;;13.10;7.47;;;;;;;6.65;92.44;99078.00;5090786;28;20020;-39
2021/12/29 05:22:01;;;;;;;13.10;7.07;;;;;;;6.62;91.04;99068.63;5090449;28;20416;-39
2021/12/29 05:24:26;;;;;;;13.00;7.85;;;;;;;6.71;91.71;99074.59;5090329;28;20104;-39
2021/12/29 05:26:52;;;;;;;12.27;7.78;;;;;;;6.77;92.02;99073.81;5090618;28;20028;-39
2021/12/29 05:29:17;;;;;;;12.27;6.97;;;;;;;6.53;92.74;99067.16;5090428;28;20105;-39
2021/12/29 05:31:43;;;;;;;13.02;7.43;;;;;;;7.03;91.88;99072.31;5090424;28;20032;-39
2021/12/29 05:34:08;;;;;;;14.77;7.53;;;;;;;7.38;90.55;99067.75;5090381;28;20411;-39
2021/12/29 05:36:34;;;;;;;10.95;6.50;;;;;;;6.91;89.54;99068.56;5088334;28;20055;-39
2021/12/29 05:38:59;;;;;;;10.90;6.32;;;;;;;6.87;89.37;99060.22;5069812;28;20132;-40
2021/12/29 05:41:25;;;;;;;13.85;7.43;;;;;;;6.97;89.92;99058.03;5070604;28;20028;-39
2021/12/29 05:43:50;;;;;;;11.98;6.85;;;;;;;6.67;91.19;99046.91;5070600;28;20028;-39
2021/12/29 05:46:16;;;;;;;12.98;7.05;;;;;;;6.83;92.44;99043.09;5070099;28;20476;-39
2021/12/29 05:48:41;;;;;;;11.02;6.10;;;;;;;7.00;90.55;99047.06;5070024;28;20020;-39
2021/12/29 05:51:07;;;;;;;12.50;6.72;;;;;;;6.76;91.89;99053.66;5069804;28;20016;-40
2021/12/29 05:53:33;;;;;;;13.30;6.80;;;;;;;6.52;92.18;99051.50;5069936;28;20012;-40
2021/12/29 05:55:58;;;;;;;11.27;6.68;;;;;;;6.65;91.88;99056.88;5083953;28;20020;-39
2021/12/29 05:58:24;;;;;;;10.63;6.80;;;;;;;6.57;91.52;99046.44;5088214;28;20077;-40
2021/12/29 06:00:49;;;;;;;14.93;8.30;;;;;;;6.36;93.00;99058.72;5088173;28;20077;-39
2021/12/29 06:03:15;;;;;;;24.98;13.30;;;;;;;6.62;91.90;99054.59;5088168;28;20016;-40
2021/12/29 06:05:40;;;;;;;13.15;7.47;;;;;;;6.50;92.31;99054.31;5088173;28;20410;-40
2021/12/29 06:08:06;;;;;;;16.73;7.63;;;;;;;6.65;92.78;99055.03;5088861;28;20117;-40
2021/12/29 06:10:32;;;;;;;14.88;8.05;;;;;;;7.35;90.29;99072.63;5088635;28;20024;-40
2021/12/29 06:12:57;;;;;;;14.77;8.45;;;;;;;7.38;88.15;99066.94;5088949;28;20055;-41
2021/12/29 06:15:23;;;;;;;13.77;7.88;;;;;;;6.93;89.75;99063.91;5089721;28;20039;-39
2021/12/29 06:17:48;;;;;;;16.33;8.75;;;;;;;6.99;89.81;99068.44;5092640;28;20027;-39
2021/12/29 06:20:14;;;;;;;20.17;9.13;;;;;;;6.96;90.38;99068.81;5096566;28;20134;-39
2021/12/29 06:22:40;;;;;;;29.70;13.57;;;;;;;6.49;91.60;99063.25;5096408;28;20059;-39
2021/12/29 06:25:07;;;;;;;16.45;9.07;;;;;;;6.87;91.65;99067.34;5096618;28;20031;-39
2021/12/29 06:27:32;;;;;;;16.55;9.35;;;;;;;7.28;89.94;99077.09;5096604;28;20027;-39
2021/12/29 06:29:58;;;;;;;16.42;8.25;;;;;;;6.88;90.31;99074.28;5096411;28;20027;-39
2021/12/29 06:32:23;;;;;;;14.80;8.77;;;;;;;6.69;91.21;99075.81;5096395;28;20119;-39
2021/12/29 06:34:49;;;;;;;15.30;8.07;;;;;;;6.68;91.53;99080.25;5096009;28;20048;-39
2021/12/29 06:37:15;;;;;;;12.95;7.50;;;;;;;6.51;90.86;99085.06;5096411;28;20019;-39
2021/12/29 06:39:44;;;;;;;14.18;8.40;;;;;;;6.63;91.66;99083.50;5096438;28;20031;-39
2021/12/29 06:42:09;;;;;;;17.50;8.67;;;;;;;6.65;93.31;99092.03;5096274;28;20034;-40
2021/12/29 06:44:35;;;;;;;16.88;9.02;;;;;;;7.23;90.08;99085.63;5096253;28;20016;-40
2021/12/29 06:47:00;;;;;;;14.95;8.63;;;;;;;7.02;90.03;99091.84;5096371;28;20137;-40
2021/12/29 06:49:26;;;;;;;16.25;8.98;;;;;;;6.62;91.77;99091.59;5095917;28;20031;-39
2021/12/29 06:51:51;;;;;;;17.00;8.57;;;;;;;6.52;91.79;99099.88;5096060;28;20322;-39
2021/12/29 06:54:17;;;;;;;15.48;8.10;;;;;;;6.54;91.35;99097.06;5095647;28;20020;-39
2021/12/29 06:56:42;;;;;;;15.13;8.30;;;;;;;6.33;91.03;99098.72;5096383;28;20024;-39
2021/12/29 06:59:08;;;;;;;13.85;8.43;;;;;;;6.36;92.64;99095.72;5096328;28;20359;-39
2021/12/29 07:01:33;;;;;;;17.38;9.27;;;;;;;6.71;92.37;99105.50;5096350;28;20028;-39
2021/12/29 07:03:59;;;;;;;16.67;9.60;;;;;;;6.78;91.57;99115.13;5095933;28;20559;-39
2021/12/29 07:06:24;;;;;;;17.23;9.43;;;;;;;6.69;91.73;99112.81;5096410;28;20031;-39
2021/12/29 07:08:50;;;;;;;16.10;9.07;;;;;;;6.63;90.65;99123.16;5096560;28;20092;-40
2021/12/29 07:11:15;;;;;;;20.67;10.38;;;;;;;6.78;91.90;99106.38;5095981;28;20468;-38
2021/12/29 07:13:42;;;;;;;17.95;9.10;;;;;;;6.48;90.82;99111.06;5095978;28;20024;-39
2021/12/29 07:16:09;;;;;;;19.40;10.02;;;;;;;6.55;92.56;99118.03;5095882;28;20048;-39
2021/12/29 07:18:34;;;;;;;18.98;10.50;;;;;;;6.53;92.14;99117.41;5096060;28;20371;-38
2021/12/29 07:21:00;;;;;;;19.10;9.95;;;;;;;6.49;91.15;99118.75;5095794;28;20028;-39
2021/12/29 07:23:25;;;;;;;18.23;10.07;;;;;;;6.42;91.87;99115.28;5095481;28;20092;-40
2021/12/29 07:25:51;;;;;;;17.90;10.60;;;;;;;6.52;92.29;99112.28;5095609;28;20020;-39
2021/12/29 07:28:16;;;;;;;18.55;9.98;;;;;;;6.60;91.01;99115.59;5095239;28;20085;-39
2021/12/29 07:30:42;;;;;;;21.10;10.35;;;;;;;6.40;92.62;99123.38;5090946;28;20036;-39
2021/12/29 07:33:08;;;;;;;18.90;10.48;;;;;;;6.54;91.71;99119.00;5092140;28;20097;-39
2021/12/29 07:35:33;;;;;;;17.30;9.80;;;;;;;6.49;92.08;99112.66;5092125;28;20035;-39
2021/12/29 07:37:59;;;;;;;19.48;10.63;;;;;;;6.45;91.53;99115.72;5092227;28;20161;-39
2021/12/29 07:40:24;;;;;;;20.08;10.40;;;;;;;6.54;92.55;99108.44;5093406;28;20487;-40
2021/12/29 07:42:50;;;;;;;22.67;11.18;;;;;;;6.53;92.29;99108.63;5092917;28;20081;-38
2021/12/29 07:45:15;;;;;;;18.08;10.43;;;;;;;6.45;93.23;99107.78;5092268;28;20016;-40
2021/12/29 07:47:46;;;;;;;24.00;11.02;;;;;;;6.68;91.58;99084.72;5092555;28;20032;-39
2021/12/29 07:50:12;;;;;;;20.48;10.98;;;;;;;6.71;91.98;99105.50;5092217;28;20035;-39
2021/12/29 07:52:37;;;;;;;21.73;11.57;;;;;;;6.62;91.03;99108.28;5090738;28;20464;-39
2021/12/29 07:55:03;;;;;;;25.92;11.85;;;;;;;7.01;90.43;99109.53;5092258;28;20031;-39
2021/12/29 07:57:29;;;;;;;21.90;10.90;;;;;;;6.93;90.57;99109.72;5092282;28;20376;-40
2021/12/29 07:59:54;;;;;;;25.42;11.00;;;;;;;6.81;89.74;99111.25;5092272;28;20091;-40
2021/12/29 08:02:27;;;;;;;22.92;11.73;;;;;;;7.00;89.88;99109.75;5092003;28;20051;-40
2021/12/29 08:04:52;;;;;;;25.95;11.27;;;;;;;7.00;89.80;99117.66;5089372;28;20036;-40
2021/12/29 08:07:18;;;;;;;24.05;12.13;;;;;;;6.95;90.62;99123.56;5090125;28;20418;-39
2021/12/29 08:09:43;;;;;;;24.65;11.68;;;;;;;6.92;90.39;99113.34;5092364;28;20039;-40
2021/12/29 08:12:09;;;;;;;25.95;12.15;;;;;;;6.87;89.91;99118.41;5092017;28;20027;-40
2021/12/29 08:14:34;;;;;;;27.40;13.05;;;;;;;7.05;90.91;99117.91;5092708;28;20464;-40
2021/12/29 08:17:02;;;;;;;31.88;14.05;;;;;;;7.12;91.51;99113.47;5092474;28;20020;-40
2021/12/29 08:19:28;;;;;;;31.67;13.55;;;;;;;7.78;88.37;99120.00;5092733;28;20027;-39
2021/12/29 08:21:53;;;;;;;26.27;13.15;;;;;;;7.16;88.29;99119.16;5091359;28;20024;-39
2021/12/29 08:24:19;;;;;;;23.65;12.07;;;;;;;6.79;89.45;99108.81;5090852;28;20020;-39
2021/12/29 08:26:44;;;;;;;22.13;11.38;;;;;;;6.66;90.46;99116.66;5090962;28;20016;-39
2021/12/29 08:29:10;;;;;;;24.60;11.52;;;;;;;6.83;89.96;99117.16;5089655;28;20533;-39
2021/12/29 08:31:35;;;;;;;22.02;11.18;;;;;;;6.67;90.95;99117.50;5090793;28;20099;-40
2021/12/29 08:34:01;;;;;;;22.92;11.98;;;;;;;6.90;89.69;99114.56;5090951;28;20027;-40
2021/12/29 08:36:26;;;;;;;30.17;13.30;;;;;;;6.87;91.70;99121.06;5090600;28;20495;-39
2021/12/29 08:38:52;;;;;;;29.92;14.02;;;;;;;7.81;87.89;99127.56;5090861;28;20054;-39
2021/12/29 08:41:17;;;;;;;31.98;14.40;;;;;;;7.37;89.28;99132.31;5090337;28;20028;-39
2021/12/29 08:43:45;;;;;;;30.17;14.93;;;;;;;7.20;88.67;99123.09;5090534;28;20024;-38
2021/12/29 08:46:11;;;;;;;36.03;15.25;;;;;;;7.08;90.67;99114.03;5089552;28;20032;-38
2021/12/29 08:48:37;;;;;;;32.40;15.88;;;;;;;6.97;91.28;99118.88;5090609;28;20130;-39
2021/12/29 08:51:03;;;;;;;38.67;16.75;;;;;;;6.99;91.58;99111.56;5091442;28;20024;-39
2021/12/29 08:53:29;;;;;;;27.30;14.88;;;;;;;7.07;90.22;99109.78;5090832;28;20020;-39
2021/12/29 08:55:56;;;;;;;24.77;13.10;;;;;;;6.85;91.09;99105.41;5091018;28;20381;-39
2021/12/29 08:58:24;;;;;;;27.70;14.55;;;;;;;6.88;91.82;99112.13;5090567;28;20028;-39
2021/12/29 09:00:51;;;;;;;29.00;14.93;;;;;;;7.87;89.15;99113.50;5090094;28;20059;-39
2021/12/29 09:03:16;;;;;;;21.45;11.07;;;;;;;8.36;88.54;99116.81;5090933;28;20524;-39
2021/12/29 09:05:42;;;;;;;20.40;10.90;;;;;;;8.21;86.47;99104.56;5090859;28;20024;-40
2021/12/29 09:08:07;;;;;;;18.10;10.35;;;;;;;8.46;82.84;99106.66;5089380;28;20059;-39
2021/12/29 09:10:33;;;;;;;16.77;10.48;;;;;;;9.18;82.85;99099.56;5090343;28;20072;-40
2021/12/29 09:12:58;;;;;;;16.13;9.30;;;;;;;9.34;79.27;99095.59;5090809;28;20028;-39
2021/12/29 09:15:24;;;;;;;14.93;8.82;;;;;;;9.14;82.01;99089.56;5090139;28;20024;-39
2021/12/29 09:17:49;;;;;;;13.52;8.88;;;;;;;9.10;79.99;99083.03;5090351;28;20012;-40
2021/12/29 09:20:25;;;;;;;14.75;9.23;;;;;;;9.32;80.22;99070.28;5090015;28;20020;-39
2021/12/29 09:22:51;;;;;;;13.38;8.75;;;;;;;9.34;78.95;99063.72;5090170;28;20111;-40
2021/12/29 09:25:18;;;;;;;13.60;8.35;;;;;;;9.26;79.76;99060.53;5090065;28;20038;-39
2021/12/29 09:27:47;;;;;;;13.25;8.95;;;;;;;9.07;80.73;99068.34;5090005;28;20016;-39
2021/12/29 09:30:13;;;;;;;12.90;8.73;;;;;;;9.41;78.77;99063.72;5089963;28;20028;-39
2021/12/29 09:32:38;;;;;;;14.82;8.68;;;;;;;9.55;77.34;99062.59;5088756;28;20502;-38
2021/12/29 09:35:04;;;;;;;14.70;9.00;;;;;;;9.32;76.37;99065.78;5089861;28;20052;-39
2021/12/29 09:37:30;;;;;;;14.88;10.43;;;;;;;8.71;80.00;99059.06;5090085;28;20024;-39
2021/12/29 09:39:56;;;;;;;15.18;10.10;;;;;;;9.02;79.88;99064.69;5089756;28;20024;-39
2021/12/29 09:42:22;;;;;;;15.75;9.00;;;;;;;9.32;79.77;99051.69;5090063;28;20484;-39
2021/12/29 09:44:48;;;;;;;15.50;10.07;;;;;;;9.38;76.97;99058.81;5089779;28;20027;-39
2021/12/29 09:47:13;;;;;;;15.18;10.00;;;;;;;9.25;78.72;99049.06;5088442;28;20024;-39
2021/12/29 09:49:39;;;;;;;17.15;9.35;;;;;;;9.17;77.85;99044.81;5088596;28;20431;-40
2021/12/29 09:52:05;;;;;;;12.52;7.90;;;;;;;9.42;77.96;99041.44;5089330;28;20030;-39
2021/12/29 09:54:31;;;;;;;11.43;7.60;;;;;;;9.48;77.29;99040.59;5088144;28;20499;-39
2021/12/29 09:56:57;;;;;;;13.38;9.20;;;;;;;9.25;77.46;99035.78;5089181;28;20049;-39
2021/12/29 09:59:23;;;;;;;16.05;9.25;;;;;;;8.68;79.60;99034.78;5089879;28;20028;-39
2021/12/29 10:01:48;;;;;;;17.60;9.93;;;;;;;8.97;80.33;99029.00;5089861;28;20368;-39
2021/12/29 10:04:14;;;;;;;15.55;8.45;;;;;;;9.16;78.38;99027.28;5089972;28;20034;-39
2021/12/29 10:06:40;;;;;;;15.18;8.88;;;;;;;9.14;77.63;99015.25;5087520;28;20523;-40
2021/12/29 10:09:10;;;;;;;13.48;8.35;;;;;;;8.71;80.38;99015.81;5089850;28;20024;-40
2021/12/29 10:11:36;;;;;;;13.80;9.27;;;;;;;8.97;79.94;99015.72;5089761;28;20024;-39
2021/12/29 10:14:06;;;;;;;13.52;9.15;;;;;;;9.22;78.45;99006.22;5089574;28;20055;-39
2021/12/29 10:16:32;;;;;;;19.08;9.93;;;;;;;9.08;78.45;99005.47;5090026;28;20031;-38
2021/12/29 10:19:05;;;;;;;15.73;10.77;;;;;;;9.23;78.00;99000.69;5089822;28;20028;-39
2021/12/29 10:21:31;;;;;;;17.15;11.18;;;;;;;9.54;77.56;98999.09;5089861;28;20582;-40
2021/12/29 10:23:57;;;;;;;19.33;12.07;;;;;;;9.25;77.00;99003.13;5089791;28;20099;-39
2021/12/29 10:26:27;;;;;;;15.90;10.23;;;;;;;9.49;78.53;98985.63;5089594;28;20020;-39
2021/12/29 10:29:00;;;;;;;16.80;11.30;;;;;;;9.95;75.74;98987.09;5090158;28;20514;-39
2021/12/29 10:31:28;;;;;;;17.20;11.05;;;;;;;9.73;76.75;98995.47;5090164;28;20081;-40
2021/12/29 10:33:55;;;;;;;19.33;11.65;;;;;;;9.31;76.77;98992.47;5089730;28;20024;-40
2021/12/29 10:36:28;;;;;;;21.25;13.07;;;;;;;8.48;80.61;98987.13;5089662;28;20089;-40
2021/12/29 10:38:58;;;;;;;15.63;10.57;;;;;;;8.73;80.71;98993.34;5089522;28;20028;-40
2021/12/29 10:41:25;;;;;;;15.90;10.57;;;;;;;9.29;77.53;98980.44;5089660;28;20035;-40
2021/12/29 10:44:02;;;;;;;16.75;10.38;;;;;;;9.31;78.56;98983.69;5089256;28;20041;-37
2021/12/29 10:46:33;;;;;;;16.88;10.25;;;;;;;9.01;78.39;98984.28;5089351;28;20042;-40
2021/12/29 10:49:00;;;;;;;14.20;9.15;;;;;;;9.21;78.38;98989.47;5089482;28;20028;-39
2021/12/29 10:51:52;;;;;;;11.85;7.75;;;;;;;9.19;79.57;98980.91;5089598;28;20020;-39
2021/12/29 10:54:19;;;;;;;10.55;7.03;;;;;;;9.69;75.81;98980.16;5087027;28;20040;-39
2021/12/29 10:56:58;;;;;;;11.00;6.70;;;;;;;9.55;74.82;98968.81;5089401;28;20024;-39
2021/12/29 10:59:28;;;;;;;10.70;6.88;;;;;;;9.45;75.52;98979.13;5087810;28;20360;-40
2021/12/29 11:01:53;;;;;;;;;;;;;;;9.03;78.50;98978.75;5089385;28;20024;-40
2021/12/29 11:04:19;;;;;;;11.45;5.90;;;;;;;9.07;78.09;98982.59;5090924;28;19977;-38
2021/12/29 11:06:46;;;;;;;9.60;5.72;;;;;;;8.95;77.98;98979.81;5093167;28;20166;-39
2021/12/29 11:09:12;;;;;;;9.88;6.00;;;;;;;8.88;78.10;98979.03;5093325;28;20016;-39
2021/12/29 11:11:39;;;;;;;10.48;6.07;;;;;;;8.81;79.12;98965.78;5093125;28;20031;-38
2021/12/29 11:14:17;;;;;;;11.02;6.70;;;;;;;8.66;80.29;98966.03;5092945;28;20019;-39
2021/12/29 11:16:47;;;;;;;12.00;6.82;;;;;;;8.97;79.60;98960.00;5092459;28;20028;-40
2021/12/29 11:19:12;;;;;;;12.90;7.18;;;;;;;8.79;78.50;98955.38;5092341;28;20020;-40
2021/12/29 11:21:41;;;;;;;14.27;7.40;;;;;;;8.22;81.21;98957.78;5092303;28;20107;-38
2021/12/29 11:24:20;;;;;;;15.20;8.00;;;;;;;7.94;83.22;98954.53;5091236;28;20499;-40
2021/12/29 11:26:45;;;;;;;12.38;7.35;;;;;;;7.34;84.93;98952.69;5092512;28;20103;-41
2021/12/29 11:29:13;;;;;;;14.60;8.05;;;;;;;7.35;86.21;98949.06;5092808;28;20028;-40
2021/12/29 11:31:43;;;;;;;15.80;8.02;;;;;;;7.27;86.47;98956.34;5092590;28;20031;-40
2021/12/29 11:34:24;;;;;;;17.88;9.13;;;;;;;7.23;87.41;98950.66;5092735;28;20405;-41